Aviation Digital Data Service (ADDS)

Output produced by METARs form (1238 UTC 25 September 2018)
found at http://www.aviationweather.gov/metar/data/
 
LTAF 251220Z 20010KT CAVOK 33/19 Q1009 NOSIG RMK RWY23 23010KT 200V260
TAF LTAF 251040Z 2512/2612 21008KT CAVOK
       
LTCP 251150Z 23008KT CAVOK 33/01 Q1012
TAF LTCP 251040Z 2512/2521 VRB02KT CAVOK
       
LTBJ 251220Z 01018KT CAVOK 28/12 Q1014 NOSIG RMK RWY16 01020KT
TAF LTBJ 251040Z 2512/2612 02022G35KT CAVOK
       
LTCO 251150Z VRB05KT CAVOK 26/M01 Q1019
TAF LTCO 251040Z 2512/2521 22008KT CAVOK
       
TAF LTAE 251040Z 2512/2521 35012KT 9999 SCT040 SCT200
       
LTBY 251150Z 31016KT 9999 SCT030 21/11 Q1020
TAF LTBY 251040Z 2512/2521 33012KT 9999 SCT040
       
LTAI 251220Z 18010KT 9999 FEW030 29/21 Q1010 NOSIG RMK RWY18C 16010KT RWY36R 17010KT RWY18L 16010KT
TAF LTAI 251040Z 2512/2612 17010KT 9999 FEW030 
     BECMG 2516/2520 34012KT CAVOK 
     BECMG 2608/2611 17010KT SCT030
       
LTBA 251220Z 01010KT 340V060 9999 SCT035 BKN080 16/11 Q1024 NOSIG RMK RWY17L 01012KT 340V040 RWY05 36014KT RWY23 03013KT
TAF COR LTBA 251040Z 2512/2618 02020KT 9999 SCT035 BKN100 
     TEMPO 2512/2516 -SHRA 
     BECMG 2602/2605 -SHRA 
     BECMG 2606/2609 01025G37KT
       
LTBF 251150Z 35013KT 9999 SCT017 SCT035 16/13 Q1022 NOSIG
TAF LTBF 251040Z 2512/2521 01020G35KT 9999 SCT015 SCT035 
     TEMPO 2512/2515 -SHRA
       
TAF LTBG 251040Z 2512/2521 03025G38KT 9999 SCT010 BKN030 
     TEMPO 2512/2516 -SHRA 
     TEMPO 2516/2520 -SHRA
       
LTCJ 251220Z 30006KT 250V340 CAVOK 35/02 Q1011 RMK RWY20 26005KT 210V310
TAF LTCJ 251040Z 2512/2612 VRB02KT CAVOK
       
LTBH 251150Z 05022KT 9999 SCT035 BKN100 16/07 Q1024
TAF LTBH 251040Z 2512/2521 01025G38KT 9999 SCT035 BKN100
       
LTAY 251150Z 27015KT 240V300 CAVOK 27/10 Q1016
TAF COR LTAY 251040Z 2512/2521 29014KT CAVOK 
     BECMG 2518/2520 VRB02KT SCT035
       
LTFH 251150Z 32022KT 9999 SCT036 BKN100 21/14 Q1018 NOSIG
TAF LTFH 251040Z 2512/2521 32016KT 9999 SCT036 BKN100 
     TEMPO 2513/2517 -SHRA BKN030 BKN090 
     TEMPO 2517/2521 -SHRA
       
TAF LTBL 251040Z 2512/2521 01015G30KT CAVOK
       
LTBU 251220Z 34015KT 9999 SCT040 BKN070 14/08 Q1025 RMK RWY23 36014KT
TAF LTBU 251040Z 2512/2612 34016KT 9999 SCT035 BKN080 
     BECMG 2516/2520 CAVOK 
     BECMG 2522/2602 SCT035 BKN080 
     BECMG 2602/2605 01017G27KT -SHRA 
     BECMG 2606/2609 01025G40KT
       
LTBS 251220Z 23014KT CAVOK 29/19 Q1011 NOSIG RMK RWY19 20014KT
TAF LTBS 251040Z 2512/2612 23013KT 9999 FEW030 
     BECMG 2516/2518 02009KT CAVOK 
     BECMG 2607/2609 23012KT FEW030
       
LTCC 251220Z 03005KT 330V130 CAVOK 34/00 Q1011 NOSIG RMK RWY16 VRB05KT
TAF LTCC 251040Z 2512/2612 VRB02KT CAVOK
       
LTFD 251150Z 09021KT 9999 SCT035 19/11 Q1020
TAF LTFD 251040Z 2512/2521 08022G35KT 9999 SCT035
       
LTCA 251150Z VRB05KT CAVOK 32/01 Q1014 NOSIG
TAF LTCA 251040Z 2512/2521 VRB02KT CAVOK
       
LTAT 251220Z VRB02KT CAVOK 31/M00 Q1013 NOSIG RMK RWY03 VRB02KT
TAF LTAT 251040Z 2512/2612 VRB02KT CAVOK
       
LTAU 251220Z 29006KT 240V340 9999 FEW040 30/M04 Q1015 NOSIG RMK RWY07 29005KT 230V330
TAF LTAU 251040Z 2512/2612 VRB02KT CAVOK 
     TEMPO 2512/2515 FEW040 
     BECMG 2518/2521 06012KT 
     BECMG 2522/2601 SCT030 
     PROB40 2603/2607 BKN020
       
LTCD 251150Z 11003KT CAVOK 30/M01 Q1016 NOSIG
TAF LTCD 251040Z 2512/2521 VRB02KT CAVOK 
     BECMG 2516/2518 27013KT
       
LTCE 251220Z 28011KT 240V310 9999 FEW035 25/M02 Q1019 NOSIG RMK RWY08R 27011KT RWY26R 27010KT 240V310 RWY08L 28010KT 240V320
TAF LTCE 251040Z 2512/2612 28008KT 9999 FEW035 
     BECMG 2516/2518 CAVOK
       
LTAC 251220Z 29011KT 9999 FEW040 25/06 Q1017 NOSIG RMK RWY21L 29010KT 260V330 RWY03L 26008KT 230V310 RWY21R 29008KT 230V010
TAF LTAC 251040Z 2512/2612 32015KT 9999 SCT040 
     BECMG 2512/2515 02015KT 
     BECMG 2522/2524 BKN030 BKN080 
     TEMPO 2602/2606 -SHRA 
     TEMPO 2606/2610 -SHRA
       
TAF LTBI 251040Z 2512/2521 33012KT 9999 SCT040
       
TAF LTAD 251040Z 2512/2521 31012KT 9999 SCT040 SCT100 BKN200
       
TAF LTAB 251040Z 2512/2521 35012KT 9999 SCT040 SCT200 
     PROB30 
     TEMPO 2515/2518 35015G25KT
       
LTAG 251220Z 18009KT CAVOK 33/17 Q1009 NOSIG
TAF LTAG 251040Z 2512/2612 21009KT CAVOK 
     BECMG 2515/2517 SCT030 
     BECMG 2519/2521 03010KT
       
LTCN 251150Z 27005KT 210V320 CAVOK 35/M02 Q1011 NOSIG
TAF LTCN 251040Z 2512/2521 29009KT CAVOK 
     PROB40 
     TEMPO 2515/2518 29020G30KT
       
LTAZ 251220Z 27006KT 160V330 9999 FEW040 31/01 Q1015 RMK RWY29 29006KT 200V350
TAF LTAZ 251040Z 2512/2612 31008KT CAVOK 
     TEMPO 2512/2515 FEW040 
     BECMG 2515/2518 03012KT 
     TEMPO 2518/2522 03015G25KT 
     BECMG 2521/2524 SCT030 
     BECMG 2600/2603 BKN025 
     BECMG 2608/2611 SCT040
       
LTCF 251150Z 17006KT 080V240 CAVOK 24/03 Q1020
TAF LTCF 251040Z 2512/2521 VRB02KT CAVOK 
     BECMG 2512/2514 FEW035
       
LTAL 251150Z 33004KT 9999 4000SW BR FEW014 SCT016 13/10 Q1020
TAF LTAL 251040Z 2512/2521 30009KT 9999 SCT027 BKN090 
     TEMPO 2515/2519 -SHRA BKN025 BKN080
       
LTAN 251150Z 01011KT 340V040 CAVOK 28/05 Q1016 NOSIG
TAF COR LTAN 251040Z 2512/2521 02011KT CAVOK 
     BECMG 2518/2520 36022KT
       
LTCR 251150Z 25007KT 220V300 CAVOK 34/04 Q1011
TAF LTCR 251040Z 2512/2521 26009KT CAVOK
       
LTAP 251220Z 01026KT 9999 FEW040 22/12 Q1015 NOSIG RMK RWY23 01027KT
TAF LTAP 251040Z 2512/2612 03018KT 9999 SCT040 
     TEMPO 2513/2517 03028KT 
     BECMG 2515/2518 BKN035 BKN080 
     TEMPO 2522/2602 -SHRA 
     TEMPO 2602/2606 -SHRA 
     BECMG 2603/2606 03008KT
       
LTFE 251220Z 24006KT 200V280 CAVOK 32/13 Q1011 BECMG TL1400 34014KT
TAF LTFE 251040Z 2512/2612 28012KT CAVOK 
     BECMG 2512/2514 34014KT 
     BECMG 2518/2522 01018G28KT 
     BECMG 2609/2612 FEW035 BKN200
       
LTCK 251150Z 27005KT 240V310 9999 FEW040 29/01 Q1016
TAF LTCK 251040Z 2512/2521 VRB02KT 9999 FEW040
       
LTAJ 251220Z 17004KT 120V240 CAVOK 33/03 Q1012 NOSIG RMK RWY10 VRB04KT
TAF LTAJ 251040Z 2512/2612 VRB02KT CAVOK
       
LTFJ 251220Z 03014KT 9999 -DZ BKN011 BKN027 14/12 Q1024 NOSIG RMK RWY24 02013KT
TAF LTFJ 251040Z 2512/2612 01016G26KT 6000 -DZ BKN008 BKN030 
     TEMPO 2512/2516 4000 RA
       
LTCL 251150Z 19004KT CAVOK 35/06 Q1011
TAF LTCL 251040Z 2512/2521 VRB02KT CAVOK
       
LTCM 251150Z 32016KT 9999 BKN030 19/11 Q1021
TAF LTCM 251040Z 2512/2521 33015KT 9999 SCT030 BKN090 
     TEMPO 2514/2518 -SHRA BKN025 BKN080
       
LTFC 251220Z 30011KT 9999 FEW035 30/06 Q1014 RMK RWY23 32012KT 280V360
TAF LTFC 251040Z 2512/2612 VRB02KT 9999 SCT035 
     BECMG 2515/2518 36012KT
       
LTAW 251150Z 02016KT 350V050 CAVOK 28/13 Q1014
TAF LTAW 251040Z 2512/2521 03012KT 9999 SCT040 
     TEMPO 2512/2515 02028KT
       
LTBQ 251219Z 05004KT 330V130 7000 -SHRA SCT007 BKN018 14/14 Q1024 RESHRA TEMPO 3200 SHRA BR SCT006 BKN015 RMK RWY09 04006KT 340V090
TAF LTBQ 251040Z 2512/2521 03008KT 8000 -SHRA SCT010 BKN020 
     TEMPO 2512/2516 3200 SHRA BR SCT006 BKN015
       
LTCG 251220Z 29023KT 9999 SCT035 27/17 Q1016 NOSIG RMK RWY29 29024KT
TAF LTCG 251040Z 2512/2612 29020KT 9999 SCT035 
     TEMPO 2512/2516 30025G38KT 
     BECMG 2513/2516 -SHRA SCT012 BKN033 
     TEMPO 2516/2520 28020G35KT 3500 TSRA SCT020CB BKN028 
     PROB40 2520/2524 3500 TSRA SCT020CB BKN028 
     BECMG 2602/2605 27009KT
       
LTCI 251150Z 27010KT 9999 FEW040 23/11 Q1020 NOSIG
TAF LTCI 251040Z 2512/2521 VRB02KT 9999 FEW040
       
LTBR 251220Z 34015G25KT 310V030 9999 BKN030 BKN090 16/12 Q1021 NOSIG RMK RWY07 35015G25KT
TAF COR LTBR 251040Z 2512/2612 35014KT 9999 BKN030 BKN090 
     TEMPO 2512/2516 35018G28KT 
     PROB30 
     TEMPO 2517/2520 -TSRA FEW025CB BKN030 
     BECMG 2520/2524 -SHRA